Time;durP1;ratioP1;P1;durP2;ratioP2;P2;SDS_P1;SDS_P2;PMS_P1;PMS_P2;Temp;Humidity;BMP_temperature;BMP_pressure;BME280_temperature;BME280_humidity;BME280_pressure;Samples;Min_cycle;Max_cycle;Signal;HPM_P1;HPM_P2
2023/08/28 00:02:23;;;;;;;1.17;0.45;;;;;;;17.53;100.00;99615.44;7400443;19;20026;-81
2023/08/28 00:04:49;;;;;;;3.10;0.73;;;;;;;17.35;100.00;99620.47;7399365;19;20373;-81
2023/08/28 00:07:15;;;;;;;1.95;0.95;;;;;;;25.98;100.00;99611.75;7397482;19;20472;-81
2023/08/28 00:09:42;;;;;;;2.83;1.15;;;;;;;18.14;100.00;99616.22;7396317;19;20053;-80
2023/08/28 00:12:08;;;;;;;3.22;2.00;;;;;;;19.15;100.00;99621.81;7399823;19;20387;-80
2023/08/28 00:14:34;;;;;;;1.80;1.02;;;;;;;18.65;100.00;99619.06;7399802;19;20022;-80
2023/08/28 00:17:00;;;;;;;1.58;0.82;;;;;;;17.57;100.00;99618.72;7397984;19;20476;-80
2023/08/28 00:19:26;;;;;;;1.40;0.80;;;;;;;17.36;100.00;99618.41;7394068;19;20015;-80
2023/08/28 00:21:52;;;;;;;2.10;0.47;;;;;;;16.58;100.00;99616.31;7395553;19;20357;-81
2023/08/28 00:24:18;;;;;;;0.50;0.50;;;;;;;17.43;100.00;99615.75;7397918;19;20487;-81
2023/08/28 00:26:44;;;;;;;2.13;1.40;;;;;;;17.40;100.00;99610.44;7393154;19;20371;-80
2023/08/28 00:29:11;;;;;;;1.15;0.57;;;;;;;17.40;100.00;99599.19;7395890;19;20028;-81
2023/08/28 00:31:37;;;;;;;2.28;1.10;;;;;;;17.41;100.00;99595.81;7394890;19;20014;-81
2023/08/28 00:34:03;;;;;;;3.20;0.82;;;;;;;17.45;100.00;99595.53;7397487;19;20034;-80
2023/08/28 00:36:29;;;;;;;1.35;0.43;;;;;;;17.32;100.00;99592.63;7395293;19;20011;-80
2023/08/28 00:38:55;;;;;;;0.60;0.57;;;;;;;17.35;100.00;99588.72;7394400;19;20549;-80
2023/08/28 00:41:22;;;;;;;1.88;1.08;;;;;;;17.23;100.00;99587.34;7394563;19;20026;-81
2023/08/28 00:43:48;;;;;;;0.75;0.25;;;;;;;15.96;100.00;99594.69;7399393;19;20069;-81
2023/08/28 00:46:15;;;;;;;3.78;0.47;;;;;;;13.77;100.00;99597.91;7392846;19;20018;-81
2023/08/28 00:48:41;;;;;;;1.75;0.88;;;;;;;13.32;100.00;99594.91;7393443;19;20035;-80
2023/08/28 00:51:08;;;;;;;3.95;1.25;;;;;;;12.82;100.00;99605.00;7392057;19;20018;-81
2023/08/28 00:53:36;;;;;;;6.55;0.85;;;;;;;14.72;100.00;99606.00;7395345;19;20028;-80
2023/08/28 00:56:02;;;;;;;0.73;0.45;;;;;;;13.35;100.00;99610.72;7396028;19;20053;-81
2023/08/28 00:58:28;;;;;;;2.70;0.80;;;;;;;16.47;100.00;99593.88;7394300;19;20022;-81
2023/08/28 01:00:54;;;;;;;0.63;0.40;;;;;;;18.30;100.00;99597.50;7391251;19;20018;-81
2023/08/28 01:03:21;;;;;;;2.25;0.98;;;;;;;14.14;100.00;99612.53;7395396;19;20484;-81
2023/08/28 01:05:58;;;;;;;0.45;0.45;;;;;;;16.31;100.00;99591.94;7396105;19;20026;-81
2023/08/28 01:08:31;;;;;;;0.52;0.38;;;;;;;16.37;100.00;99595.47;7393646;19;20414;-81
2023/08/28 01:11:18;;;;;;;0.40;0.40;;;;;;;17.01;100.00;99601.63;7395004;19;20017;-81
2023/08/28 01:13:56;;;;;;;2.40;0.50;;;;;;;25.84;100.00;99589.84;7395287;19;20010;-81
2023/08/28 01:16:26;;;;;;;2.42;0.43;;;;;;;18.12;100.00;99603.94;7392624;19;20019;-80
2023/08/28 01:18:53;;;;;;;1.27;0.45;;;;;;;17.45;100.00;99601.19;7392710;19;20019;-81
2023/08/28 01:21:19;;;;;;;1.13;0.40;;;;;;;17.31;100.00;99599.53;7393178;19;20018;-80
2023/08/28 01:23:58;;;;;;;1.48;0.90;;;;;;;17.26;100.00;99606.00;7396020;19;20014;-81
2023/08/28 01:26:25;;;;;;;1.13;0.45;;;;;;;17.24;100.00;99602.91;7392375;19;20082;-80
2023/08/28 01:28:51;;;;;;;2.45;0.82;;;;;;;21.84;100.00;99591.88;7391527;19;20461;-81
2023/08/28 01:31:17;;;;;;;3.42;0.75;;;;;;;20.93;100.00;99596.13;7393779;19;20583;-81
2023/08/28 01:33:44;;;;;;;0.60;0.43;;;;;;;17.83;100.00;99602.78;7394731;19;20018;-81
2023/08/28 01:36:33;;;;;;;3.08;0.77;;;;;;;18.00;100.00;99605.38;7396200;19;20010;-80
2023/08/28 01:39:09;;;;;;;3.78;0.95;;;;;;;19.12;100.00;99608.78;7391767;19;20400;-81
2023/08/28 01:41:38;;;;;;;2.38;0.45;;;;;;;17.75;100.00;99613.13;7392284;19;20026;-81
2023/08/28 01:44:07;;;;;;;2.72;1.15;;;;;;;15.15;100.00;99618.47;7396613;19;20029;-81
2023/08/28 01:46:34;;;;;;;1.85;0.65;;;;;;;21.03;100.00;99617.78;7392103;19;20015;-81
2023/08/28 01:49:00;;;;;;;8.48;1.25;;;;;;;15.64;100.00;99616.03;7391614;19;20014;-81
2023/08/28 01:51:26;;;;;;;1.58;0.63;;;;;;;16.83;100.00;99616.38;7396155;19;20014;-81
2023/08/28 01:53:53;;;;;;;5.57;1.30;;;;;;;17.09;100.00;99613.81;7396398;19;20014;-81
2023/08/28 01:56:20;;;;;;;2.65;1.25;;;;;;;17.47;100.00;99606.28;7390477;19;20019;-81
2023/08/28 01:58:50;;;;;;;2.30;1.10;;;;;;;14.93;100.00;99618.47;7390763;19;20070;-81
2023/08/28 02:01:16;;;;;;;9.13;0.43;;;;;;;16.46;100.00;99609.19;7393517;19;20027;-80
2023/08/28 02:03:43;;;;;;;1.35;0.68;;;;;;;24.92;100.00;99612.00;7393579;19;20043;-81
2023/08/28 02:06:09;;;;;;;1.38;0.82;;;;;;;36.04;61.27;99589.16;7395229;19;20018;-81
2023/08/28 02:08:36;;;;;;;1.92;0.98;;;;;;;39.16;44.23;99594.44;7392818;19;20014;-80
2023/08/28 02:11:02;;;;;;;2.42;0.47;;;;;;;18.17;100.00;99620.75;7388243;19;20039;-81
2023/08/28 02:13:29;;;;;;;4.60;1.45;;;;;;;17.34;100.00;99618.19;7389610;19;20050;-81
2023/08/28 02:15:55;;;;;;;1.95;1.10;;;;;;;18.03;100.00;99616.34;7391295;19;20031;-81
2023/08/28 02:18:21;;;;;;;4.03;1.30;;;;;;;16.39;100.00;99625.88;7390933;19;20086;-81
2023/08/28 02:20:48;;;;;;;2.20;0.93;;;;;;;14.65;100.00;99631.75;7389603;19;20699;-80
2023/08/28 02:23:14;;;;;;;2.33;0.77;;;;;;;14.74;100.00;99630.72;7391447;19;20010;-81
2023/08/28 02:25:46;;;;;;;1.30;0.75;;;;;;;13.90;100.00;99634.59;7390721;19;20441;-81
2023/08/28 02:28:12;;;;;;;0.60;0.60;;;;;;;18.33;100.00;99621.81;7390101;19;20100;-80
2023/08/28 02:30:39;;;;;;;1.23;0.73;;;;;;;16.75;100.00;99618.22;7390040;19;20007;-81
2023/08/28 02:33:05;;;;;;;2.33;0.70;;;;;;;14.16;100.00;99619.13;7389693;19;20014;-80
2023/08/28 02:35:32;;;;;;;1.50;1.00;;;;;;;14.99;100.00;99622.03;7395049;19;20418;-80
2023/08/28 02:37:58;;;;;;;3.90;0.88;;;;;;;13.93;100.00;99628.00;7390254;19;20018;-81
2023/08/28 02:40:25;;;;;;;2.85;1.17;;;;;;;14.46;100.00;99622.31;7388745;19;20499;-80
2023/08/28 02:42:51;;;;;;;1.15;0.85;;;;;;;17.14;100.00;99615.81;7390947;19;20517;-81
2023/08/28 02:45:17;;;;;;;3.72;0.95;;;;;;;24.01;100.00;99606.78;7390420;19;20010;-80
2023/08/28 02:47:43;;;;;;;0.88;0.52;;;;;;;19.48;100.00;99609.16;7391102;19;20010;-81
2023/08/28 02:50:10;;;;;;;1.45;0.73;;;;;;;17.81;100.00;99613.81;7390100;19;20018;-80
2023/08/28 02:52:36;;;;;;;0.52;0.40;;;;;;;15.69;100.00;99615.25;7390322;19;20029;-81
2023/08/28 02:55:02;;;;;;;2.50;0.75;;;;;;;18.85;100.00;99615.66;7394240;19;20015;-81
2023/08/28 02:57:28;;;;;;;8.43;0.82;;;;;;;18.08;100.00;99612.69;7390050;19;20014;-81
2023/08/28 02:59:54;;;;;;;1.90;0.70;;;;;;;21.58;100.00;99614.75;7387429;19;20065;-81
2023/08/28 03:02:20;;;;;;;2.42;0.63;;;;;;;18.23;100.00;99617.09;7390885;19;20018;-81
2023/08/28 03:04:46;;;;;;;1.10;0.80;;;;;;;16.64;100.00;99608.59;7394935;19;20015;-80
2023/08/28 03:07:13;;;;;;;2.97;0.95;;;;;;;18.22;100.00;99604.28;7393456;19;20023;-81
2023/08/28 03:09:39;;;;;;;0.73;0.25;;;;;;;23.15;100.00;99598.81;7388939;19;20011;-80
2023/08/28 03:12:05;;;;;;;1.70;1.00;;;;;;;27.59;100.00;99592.41;7391005;19;20010;-81
2023/08/28 03:14:33;;;;;;;1.50;0.47;;;;;;;28.10;78.53;99591.97;7394269;19;20082;-80
2023/08/28 03:16:59;;;;;;;2.28;0.65;;;;;;;26.13;96.91;99593.72;7393649;19;20014;-80
2023/08/28 03:19:25;;;;;;;3.28;0.60;;;;;;;25.91;99.00;99589.00;7388898;19;20037;-80
2023/08/28 03:21:51;;;;;;;2.90;0.57;;;;;;;37.76;50.47;99573.94;7389449;19;20023;-80
2023/08/28 03:24:17;;;;;;;0.82;0.30;;;;;;;24.53;96.97;99593.66;7391948;19;20018;-80
2023/08/28 03:26:44;;;;;;;3.90;0.93;;;;;;;20.99;100.00;99594.69;7389931;19;20022;-80
2023/08/28 03:29:10;;;;;;;1.20;0.30;;;;;;;27.38;97.52;99592.19;7389315;19;20023;-80
2023/08/28 03:31:37;;;;;;;2.20;0.60;;;;;;;36.12;56.11;99572.06;7384410;19;20480;-80
2023/08/28 03:34:03;;;;;;;1.77;0.70;;;;;;;30.86;55.98;99584.28;7386271;19;20021;-80
2023/08/28 03:36:29;;;;;;;4.03;0.60;;;;;;;20.80;100.00;99594.16;7391093;19;20025;-80
2023/08/28 03:38:55;;;;;;;2.00;0.65;;;;;;;16.18;100.00;99605.81;7386055;19;20018;-79
2023/08/28 03:41:21;;;;;;;2.95;0.60;;;;;;;14.87;100.00;99603.72;7383466;19;20019;-80
2023/08/28 03:43:47;;;;;;;1.98;0.95;;;;;;;14.16;100.00;99607.19;7386045;19;20018;-80
2023/08/28 03:46:14;;;;;;;0.63;0.43;;;;;;;13.75;100.00;99611.66;7391051;19;20039;-80
2023/08/28 03:48:40;;;;;;;2.17;0.77;;;;;;;13.57;100.00;99613.63;7388820;19;20015;-80
2023/08/28 03:51:06;;;;;;;1.42;0.70;;;;;;;13.79;100.00;99607.34;7388433;19;20035;-80
2023/08/28 03:53:32;;;;;;;1.75;0.43;;;;;;;13.40;100.00;99615.56;7392566;19;20026;-80
2023/08/28 03:55:58;;;;;;;0.88;0.40;;;;;;;13.29;100.00;99612.72;7388151;19;20021;-80
2023/08/28 03:58:24;;;;;;;0.77;0.43;;;;;;;14.24;100.00;99602.63;7390214;19;20023;-80
2023/08/28 04:00:56;;;;;;;1.38;0.20;;;;;;;13.61;100.00;99613.38;7388403;19;20018;-80
2023/08/28 04:03:23;;;;;;;0.30;0.30;;;;;;;13.28;100.00;99611.16;7391398;19;20021;-80
2023/08/28 04:05:50;;;;;;;2.13;0.32;;;;;;;13.23;100.00;99617.47;7390591;19;20025;-79
2023/08/28 04:08:16;;;;;;;3.13;0.50;;;;;;;13.20;100.00;99624.09;7388805;19;20022;-80
2023/08/28 04:10:42;;;;;;;1.05;0.75;;;;;;;13.22;100.00;99624.34;7385522;19;20018;-81
2023/08/28 04:13:09;;;;;;;0.40;0.13;;;;;;;13.52;100.00;99621.97;7396029;19;20018;-81
2023/08/28 04:15:35;;;;;;;1.55;0.30;;;;;;;14.83;100.00;99625.63;7394779;19;20015;-81
2023/08/28 04:18:01;;;;;;;1.13;0.68;;;;;;;13.60;100.00;99626.59;7394789;19;20350;-81
2023/08/28 04:20:27;;;;;;;0.93;0.70;;;;;;;16.41;100.00;99626.88;7393629;19;20039;-81
2023/08/28 04:22:53;;;;;;;1.23;0.55;;;;;;;17.20;100.00;99622.91;7395363;19;20707;-80
2023/08/28 04:25:19;;;;;;;0.47;0.40;;;;;;;17.38;100.00;99624.28;7393914;19;20047;-80
2023/08/28 04:27:46;;;;;;;0.52;0.38;;;;;;;17.36;100.00;99621.22;7392056;19;20011;-81
2023/08/28 04:30:12;;;;;;;0.65;0.43;;;;;;;15.08;100.00;99618.19;7396900;19;20014;-80
2023/08/28 04:32:39;;;;;;;0.32;0.32;;;;;;;17.06;100.00;99614.88;7398987;19;20011;-80
2023/08/28 04:35:09;;;;;;;0.70;0.22;;;;;;;17.34;100.00;99604.88;7400489;19;20014;-81
2023/08/28 04:37:36;;;;;;;0.23;0.23;;;;;;;17.48;100.00;99614.19;7396508;19;20495;-81
2023/08/28 04:40:03;;;;;;;0.90;0.55;;;;;;;17.48;100.00;99608.53;7392777;19;20018;-80
2023/08/28 04:42:30;;;;;;;0.22;0.10;;;;;;;18.12;100.00;99612.41;7393426;19;20078;-81
2023/08/28 04:44:56;;;;;;;0.20;0.20;;;;;;;17.62;100.00;99623.53;7397190;19;20011;-80
2023/08/28 04:47:22;;;;;;;0.65;0.20;;;;;;;17.58;100.00;99621.03;7392257;19;20378;-80
2023/08/28 04:49:48;;;;;;;0.30;0.10;;;;;;;17.58;100.00;99623.84;7392574;19;20011;-80
2023/08/28 04:52:15;;;;;;;0.60;0.50;;;;;;;17.60;100.00;99624.06;7393779;19;20014;-80
2023/08/28 04:54:42;;;;;;;0.10;0.10;;;;;;;17.60;100.00;99629.69;7396996;19;20050;-81
2023/08/28 04:57:08;;;;;;;0.30;0.10;;;;;;;14.57;100.00;99641.16;7394208;19;20022;-80
2023/08/28 04:59:34;;;;;;;0.17;0.10;;;;;;;13.82;100.00;99648.31;7393048;19;20018;-81
2023/08/28 05:02:00;;;;;;;2.72;0.30;;;;;;;14.21;100.00;99654.81;7394129;19;20018;-81
2023/08/28 05:04:26;;;;;;;0.43;0.35;;;;;;;16.19;100.00;99635.44;7397362;19;20093;-80
2023/08/28 05:06:52;;;;;;;0.85;0.28;;;;;;;17.21;100.00;99637.75;7398542;19;20018;-81
2023/08/28 05:09:18;;;;;;;0.17;0.10;;;;;;;17.45;100.00;99641.34;7393534;19;20074;-80
2023/08/28 05:11:45;;;;;;;0.22;0.20;;;;;;;17.55;100.00;99638.97;7393013;19;20472;-81
2023/08/28 05:14:11;;;;;;;0.20;0.10;;;;;;;17.56;100.00;99640.50;7395501;19;20010;-80
2023/08/28 05:16:39;;;;;;;0.50;0.40;;;;;;;17.54;100.00;99648.72;7397196;19;20010;-80
2023/08/28 05:19:05;;;;;;;0.63;0.40;;;;;;;17.46;100.00;99647.72;7392574;19;20014;-80
2023/08/28 05:21:31;;;;;;;1.00;0.50;;;;;;;17.45;100.00;99651.84;7392799;19;20052;-81
2023/08/28 05:23:58;;;;;;;1.48;0.80;;;;;;;17.38;100.00;99646.81;7393534;19;20018;-80
2023/08/28 05:26:24;;;;;;;0.32;0.25;;;;;;;17.33;100.00;99650.44;7395517;19;20022;-80
2023/08/28 05:28:52;;;;;;;0.68;0.10;;;;;;;17.27;100.00;99658.94;7396844;19;20025;-80
2023/08/28 05:31:19;;;;;;;3.83;0.40;;;;;;;17.18;100.00;99658.50;7392490;19;20010;-80
2023/08/28 05:33:45;;;;;;;0.17;0.17;;;;;;;17.11;100.00;99667.50;7394400;19;20014;-80
2023/08/28 05:36:11;;;;;;;1.20;0.55;;;;;;;18.23;100.00;99665.03;7395040;19;20074;-80
2023/08/28 05:38:38;;;;;;;2.70;0.35;;;;;;;19.23;100.00;99662.19;7392685;19;20027;-80
2023/08/28 05:41:04;;;;;;;1.00;0.20;;;;;;;17.14;100.00;99666.47;7390029;19;20014;-80
2023/08/28 05:43:30;;;;;;;0.73;0.10;;;;;;;14.76;100.00;99673.78;7395251;19;20481;-80
2023/08/28 05:45:57;;;;;;;0.20;0.10;;;;;;;15.09;100.00;99676.56;7396159;19;20019;-80
2023/08/28 05:48:23;;;;;;;0.73;0.30;;;;;;;16.68;100.00;99670.94;7391674;19;20014;-80
2023/08/28 05:50:50;;;;;;;0.20;0.20;;;;;;;15.83;100.00;99670.34;7390516;19;20010;-80
2023/08/28 05:53:16;;;;;;;0.17;0.17;;;;;;;16.40;100.00;99675.94;7393229;19;20018;-80
2023/08/28 05:55:42;;;;;;;0.13;0.05;;;;;;;16.02;100.00;99670.53;7391851;19;20018;-80
2023/08/28 05:58:09;;;;;;;0.68;0.32;;;;;;;24.28;100.00;99668.94;7391655;19;20018;-80
2023/08/28 06:00:35;;;;;;;2.55;0.15;;;;;;;22.22;100.00;99671.47;7392166;19;20022;-80
2023/08/28 06:03:02;;;;;;;0.20;0.20;;;;;;;14.99;100.00;99680.94;7394419;19;20018;-80
2023/08/28 06:05:28;;;;;;;7.78;0.50;;;;;;;13.85;100.00;99677.34;7392109;19;20082;-80
2023/08/28 06:07:54;;;;;;;1.20;0.65;;;;;;;14.38;100.00;99688.50;7390295;19;20054;-80
2023/08/28 06:10:20;;;;;;;0.15;0.15;;;;;;;15.74;100.00;99685.41;7391827;19;20476;-79
2023/08/28 06:12:47;;;;;;;0.47;0.47;;;;;;;13.08;100.00;99686.78;7391686;19;20026;-79
2023/08/28 06:15:20;;;;;;;0.10;0.10;;;;;;;18.53;100.00;99676.94;7395665;19;20035;-80
2023/08/28 06:17:46;;;;;;;1.85;0.30;;;;;;;23.30;100.00;99664.16;7392233;19;20473;-80
2023/08/28 06:20:12;;;;;;;3.13;0.38;;;;;;;28.45;91.97;99667.59;7389999;19;20480;-80
2023/08/28 06:22:42;;;;;;;0.20;0.20;;;;;;;33.44;65.77;99651.94;7389850;19;20044;-80
2023/08/28 06:25:09;;;;;;;0.10;0.08;;;;;;;37.04;47.27;99647.59;7396600;19;20045;-80
2023/08/28 06:27:35;;;;;;;0.75;0.30;;;;;;;37.28;45.11;99642.69;7391783;19;20365;-80
2023/08/28 06:30:04;;;;;;;0.57;0.52;;;;;;;23.09;100.00;99670.00;7391981;19;20014;-81
2023/08/28 06:32:30;;;;;;;1.65;0.57;;;;;;;19.02;100.00;99683.88;7391649;19;20078;-80
2023/08/28 06:34:56;;;;;;;0.30;0.30;;;;;;;32.37;74.75;99663.28;7392084;19;20010;-80
2023/08/28 06:37:24;;;;;;;0.30;0.30;;;;;;;36.00;52.68;99656.41;7390838;19;20015;-80
2023/08/28 06:39:52;;;;;;;0.10;0.00;;;;;;;36.93;47.69;99655.16;7391637;19;20018;-80
2023/08/28 06:42:18;;;;;;;2.85;0.43;;;;;;;37.00;46.93;99659.81;7393145;19;20021;-80
2023/08/28 06:44:44;;;;;;;2.92;0.55;;;;;;;36.69;45.97;99653.47;7394687;19;20018;-80
2023/08/28 06:47:10;;;;;;;1.40;0.30;;;;;;;36.41;46.74;99653.00;7389436;19;20033;-80
2023/08/28 06:49:36;;;;;;;0.15;0.15;;;;;;;36.78;44.84;99656.00;7391118;19;20018;-80
2023/08/28 06:52:04;;;;;;;0.10;0.00;;;;;;;36.57;44.57;99647.91;7390514;19;20018;-80
2023/08/28 06:54:32;;;;;;;1.65;0.25;;;;;;;27.49;61.19;99672.47;7392653;19;20021;-80
2023/08/28 06:56:58;;;;;;;0.20;0.13;;;;;;;28.70;63.27;99675.88;7391436;19;20021;-80
2023/08/28 06:59:25;;;;;;;1.23;0.70;;;;;;;20.23;100.00;99688.56;7395195;19;20033;-80
2023/08/28 07:01:51;;;;;;;0.35;0.25;;;;;;;19.04;100.00;99695.38;7393229;19;20105;-80
2023/08/28 07:04:17;;;;;;;2.65;0.65;;;;;;;17.32;100.00;99700.34;7394101;19;20336;-80
2023/08/28 07:06:43;;;;;;;1.98;0.47;;;;;;;17.49;100.00;99691.75;7394564;19;20025;-79
2023/08/28 07:09:09;;;;;;;0.85;0.47;;;;;;;17.51;100.00;99699.69;7391607;19;20019;-80
2023/08/28 07:11:36;;;;;;;0.10;0.00;;;;;;;17.47;100.00;99688.69;7387905;19;20021;-80
2023/08/28 07:14:03;;;;;;;0.52;0.10;;;;;;;21.61;100.00;99693.75;7391919;19;20022;-79
2023/08/28 07:16:29;;;;;;;1.55;0.30;;;;;;;16.48;100.00;99713.47;7390665;19;20018;-80
2023/08/28 07:18:55;;;;;;;0.75;0.75;;;;;;;33.96;66.28;99700.19;7389940;19;20487;-80
2023/08/28 07:21:21;;;;;;;0.90;0.65;;;;;;;36.55;52.51;99694.25;7388534;19;20025;-81
2023/08/28 07:23:50;;;;;;;0.10;0.10;;;;;;;37.30;48.18;99685.59;7390153;19;20015;-80
2023/08/28 07:26:16;;;;;;;2.28;0.20;;;;;;;37.79;46.19;99688.91;7392475;19;20010;-80
2023/08/28 07:28:42;;;;;;;0.10;0.00;;;;;;;25.82;87.58;99707.41;7387293;19;20022;-80
2023/08/28 07:31:10;;;;;;;1.35;0.35;;;;;;;21.91;100.00;99713.09;7391599;19;20022;-79
2023/08/28 07:33:37;;;;;;;1.55;0.50;;;;;;;21.37;100.00;99713.22;7392169;19;20011;-80
2023/08/28 07:36:03;;;;;;;0.80;0.45;;;;;;;34.45;64.13;99697.63;7394291;19;20060;-79
2023/08/28 07:38:30;;;;;;;6.03;0.38;;;;;;;28.09;97.04;99698.53;7393365;19;20021;-79
2023/08/28 07:40:56;;;;;;;1.20;0.10;;;;;;;22.85;100.00;99712.41;7389540;19;20477;-80
2023/08/28 07:43:22;;;;;;;11.13;0.55;;;;;;;19.83;100.00;99723.81;7390624;19;20048;-79
2023/08/28 07:45:48;;;;;;;1.15;0.32;;;;;;;19.26;100.00;99717.59;7391082;19;20083;-79
2023/08/28 07:48:14;;;;;;;0.55;0.32;;;;;;;35.19;62.70;99691.84;7396117;19;20026;-79
2023/08/28 07:50:40;;;;;;;1.48;0.08;;;;;;;38.41;47.70;99694.03;7393531;19;20346;-79
2023/08/28 07:53:06;;;;;;;0.43;0.20;;;;;;;39.97;42.39;99697.34;7398731;19;20101;-79
2023/08/28 07:55:33;;;;;;;0.38;0.38;;;;;;;27.73;71.29;99707.94;7402741;19;20015;-80
2023/08/28 07:57:59;;;;;;;0.30;0.30;;;;;;;35.43;50.99;99693.66;7397085;19;20378;-79
2023/08/28 08:00:25;;;;;;;3.72;0.30;;;;;;;23.13;100.00;99724.38;7393472;19;20408;-79
2023/08/28 08:02:51;;;;;;;11.60;0.55;;;;;;;37.31;49.33;99698.72;7394732;19;20029;-79
2023/08/28 08:05:18;;;;;;;0.68;0.30;;;;;;;40.29;40.04;99705.47;7393447;19;20034;-80
2023/08/28 08:07:44;;;;;;;1.23;0.28;;;;;;;41.37;36.02;99698.56;7397302;19;20018;-80
2023/08/28 08:10:13;;;;;;;0.35;0.35;;;;;;;40.20;36.95;99695.03;7393272;19;20048;-80
2023/08/28 08:12:39;;;;;;;0.30;0.30;;;;;;;38.24;36.96;99697.78;7396356;19;20037;-79
2023/08/28 08:15:07;;;;;;;0.60;0.38;;;;;;;40.93;34.92;99695.41;7399950;19;20043;-80
2023/08/28 08:17:36;;;;;;;0.25;0.13;;;;;;;32.83;41.66;99705.59;7395261;19;20021;-79
2023/08/28 08:20:10;;;;;;;2.65;0.20;;;;;;;38.57;39.42;99699.63;7396235;19;20018;-79
2023/08/28 08:22:40;;;;;;;2.35;0.77;;;;;;;41.76;33.99;99703.78;7397260;19;20383;-80
2023/08/28 08:25:07;;;;;;;4.55;0.47;;;;;;;38.33;35.48;99711.22;7399619;19;20031;-80
2023/08/28 08:27:34;;;;;;;0.25;0.25;;;;;;;35.17;41.18;99718.56;7395234;19;20674;-80
2023/08/28 08:30:00;;;;;;;0.05;0.05;;;;;;;31.02;51.29;99721.25;7393852;19;20029;-80
2023/08/28 08:32:26;;;;;;;0.20;0.10;;;;;;;40.16;35.38;99712.41;7394964;19;20556;-80
2023/08/28 08:34:56;;;;;;;0.52;0.20;;;;;;;41.20;33.43;99715.00;7397670;19;20050;-80
2023/08/28 08:37:22;;;;;;;2.10;0.17;;;;;;;41.45;32.94;99711.22;7396865;19;20014;-80
2023/08/28 08:39:49;;;;;;;6.18;1.08;;;;;;;41.42;31.99;99718.44;7388546;19;20410;-79
2023/08/28 08:42:16;;;;;;;0.45;0.30;;;;;;;41.27;31.47;99715.91;7397544;19;20035;-80
2023/08/28 08:44:42;;;;;;;2.10;0.40;;;;;;;32.10;40.78;99721.53;7396010;19;20512;-80
2023/08/28 08:47:09;;;;;;;1.23;0.10;;;;;;;28.50;52.30;99720.97;7390600;19;20613;-80
2023/08/28 08:49:39;;;;;;;0.90;0.50;;;;;;;38.58;37.59;99706.94;7391467;19;20014;-80
2023/08/28 08:52:08;;;;;;;0.67;0.20;;;;;;;40.71;33.45;99719.00;7394257;19;20018;-80
2023/08/28 08:54:41;;;;;;;0.20;0.20;;;;;;;27.07;55.58;99734.16;7395367;19;20129;-80
2023/08/28 08:57:25;;;;;;;0.25;0.10;;;;;;;20.38;100.00;99748.16;7396248;19;20493;-80
2023/08/28 08:59:52;;;;;;;1.50;0.98;;;;;;;27.69;78.05;99739.09;7393713;19;20029;-80
2023/08/28 09:02:19;;;;;;;0.57;0.30;;;;;;;36.58;48.19;99724.84;7392019;19;20045;-79
2023/08/28 09:04:45;;;;;;;2.10;0.15;;;;;;;39.26;38.82;99726.63;7396624;19;20014;-80
2023/08/28 09:07:12;;;;;;;0.20;0.20;;;;;;;26.54;63.42;99740.53;7398521;19;20037;-80
2023/08/28 09:09:39;;;;;;;11.20;0.70;;;;;;;19.59;100.00;99753.78;7394962;19;20361;-79
2023/08/28 09:12:06;;;;;;;0.10;0.10;;;;;;;18.37;100.00;99756.84;7392288;19;20902;-79
2023/08/28 09:14:32;;;;;;;0.13;0.03;;;;;;;17.83;100.00;99754.91;7396828;19;20019;-80
2023/08/28 09:16:58;;;;;;;0.10;0.05;;;;;;;22.64;100.00;99752.25;7393814;19;20354;-79
2023/08/28 09:19:25;;;;;;;0.10;0.10;;;;;;;34.00;58.52;99741.59;7393771;19;20057;-79
2023/08/28 09:21:52;;;;;;;0.10;0.10;;;;;;;37.84;44.44;99737.06;7394060;19;20036;-80
2023/08/28 09:24:22;;;;;;;5.50;0.32;;;;;;;39.27;39.11;99733.19;7393296;19;20025;-80
2023/08/28 09:26:52;;;;;;;0.30;0.28;;;;;;;40.17;36.44;99731.44;7393590;19;20078;-80
2023/08/28 09:29:23;;;;;;;0.32;0.32;;;;;;;40.68;35.59;99740.06;7393472;19;20018;-79
2023/08/28 09:31:51;;;;;;;;;;;;;;;41.24;34.07;99720.97;7394289;19;20025;-80
2023/08/28 09:34:20;;;;;;;0.10;0.10;;;;;;;41.58;32.59;99723.16;7393391;19;19925;-80
2023/08/28 09:36:46;;;;;;;3.63;0.20;;;;;;;41.81;32.40;99719.25;7400984;19;20480;-80
2023/08/28 09:39:12;;;;;;;0.75;0.15;;;;;;;41.66;32.16;99726.25;7394345;19;20056;-81
2023/08/28 09:41:42;;;;;;;1.58;0.35;;;;;;;42.19;31.33;99720.72;7390908;19;20349;-80
2023/08/28 09:44:09;;;;;;;0.10;0.00;;;;;;;42.05;30.79;99710.94;7394162;19;20476;-80
2023/08/28 09:46:37;;;;;;;0.68;0.22;;;;;;;41.92;30.72;99709.97;7391948;19;20473;-80
2023/08/28 09:49:08;;;;;;;0.10;0.10;;;;;;;42.17;30.38;99711.19;7392953;19;20026;-80
2023/08/28 09:51:40;;;;;;;0.20;0.20;;;;;;;42.23;30.11;99720.78;7392014;19;20028;-80
2023/08/28 09:54:07;;;;;;;0.10;0.00;;;;;;;42.49;30.03;99714.69;7396118;19;20542;-80
2023/08/28 09:56:33;;;;;;;0.10;0.10;;;;;;;41.62;30.01;99711.53;7391288;19;20006;-80
2023/08/28 09:59:03;;;;;;;0.95;0.20;;;;;;;42.64;29.43;99713.47;7392195;19;20031;-80
2023/08/28 10:01:32;;;;;;;1.13;0.30;;;;;;;42.64;28.55;99721.53;7390685;19;20407;-80
2023/08/28 10:04:01;;;;;;;0.40;0.20;;;;;;;42.56;28.66;99722.13;7392600;19;20401;-79
2023/08/28 10:06:29;;;;;;;0.20;0.10;;;;;;;42.35;28.36;99723.19;7396937;19;20014;-80
2023/08/28 10:08:58;;;;;;;0.73;0.05;;;;;;;42.60;28.07;99716.34;7391069;19;20022;-79
2023/08/28 10:11:36;;;;;;;0.73;0.47;;;;;;;42.61;28.01;99711.94;7388860;19;20033;-80
2023/08/28 10:14:04;;;;;;;0.05;0.05;;;;;;;42.59;27.89;99720.72;7390635;19;20576;-80
2023/08/28 10:16:41;;;;;;;0.10;0.00;;;;;;;42.50;27.24;99716.16;7389937;19;20026;-80
2023/08/28 10:19:21;;;;;;;4.47;0.15;;;;;;;42.47;27.68;99713.91;7388567;19;20018;-80
2023/08/28 10:21:48;;;;;;;0.03;0.00;;;;;;;42.61;27.41;99717.81;7390792;19;20033;-80
2023/08/28 10:24:16;;;;;;;1.08;0.52;;;;;;;41.96;28.48;99718.06;7393034;19;20007;-80
2023/08/28 10:26:43;;;;;;;0.73;0.52;;;;;;;42.48;27.78;99716.13;7390336;19;20023;-80
2023/08/28 10:29:10;;;;;;;0.10;0.10;;;;;;;42.76;27.20;99721.69;7390878;19;20344;-80
2023/08/28 10:31:37;;;;;;;1.00;0.35;;;;;;;42.75;27.10;99700.47;7391601;19;20015;-79
2023/08/28 10:34:08;;;;;;;2.22;0.10;;;;;;;39.15;30.84;99706.59;7389974;19;20018;-80
2023/08/28 10:36:36;;;;;;;0.10;0.10;;;;;;;42.14;27.87;99692.84;7393986;19;20082;-80
2023/08/28 10:39:03;;;;;;;0.00;0.00;;;;;;;42.51;26.98;99699.34;7391050;19;20021;-80
2023/08/28 10:41:33;;;;;;;0.28;0.13;;;;;;;42.52;27.02;99707.41;7389039;19;20373;-80
2023/08/28 10:44:03;;;;;;;0.00;0.00;;;;;;;42.38;26.99;99707.16;7389662;19;20015;-80
2023/08/28 10:46:30;;;;;;;0.13;0.03;;;;;;;42.12;26.83;99709.63;7390175;19;20018;-80
2023/08/28 10:48:57;;;;;;;0.10;0.10;;;;;;;42.23;26.84;99705.44;7388424;19;20435;-80
2023/08/28 10:51:31;;;;;;;0.00;0.00;;;;;;;42.53;26.98;99703.03;7390587;19;20539;-80
2023/08/28 10:54:03;;;;;;;0.10;0.00;;;;;;;43.03;26.87;99706.03;7394288;19;20010;-80
2023/08/28 10:56:34;;;;;;;0.22;0.22;;;;;;;43.27;25.78;99703.44;7388699;19;20101;-80
2023/08/28 10:59:19;;;;;;;;;;;;;;;43.61;26.04;99700.19;7390432;19;20423;-80
2023/08/28 11:01:52;;;;;;;1.33;0.10;;;;;;;43.74;26.15;99707.72;7387296;19;19923;-80
2023/08/28 11:04:19;;;;;;;0.00;0.00;;;;;;;43.49;26.83;99705.94;7390309;19;20047;-80
2023/08/28 11:06:45;;;;;;;0.20;0.00;;;;;;;43.49;26.48;99700.78;7391733;19;20350;-80
2023/08/28 11:09:30;;;;;;;0.73;0.30;;;;;;;43.03;26.16;99708.22;7390357;19;20068;-81
2023/08/28 11:11:59;;;;;;;0.00;0.00;;;;;;;42.84;26.11;99710.84;7389510;19;20022;-80
2023/08/28 11:14:30;;;;;;;1.55;0.85;;;;;;;42.30;26.35;99718.00;7391908;19;20014;-81
2023/08/28 11:17:09;;;;;;;1.13;0.55;;;;;;;37.93;29.02;99739.63;7391820;19;20046;-82
2023/08/28 11:19:54;;;;;;;0.80;0.32;;;;;;;40.48;28.29;99736.66;7389054;19;20010;-81
2023/08/28 11:22:32;;;;;;;0.45;0.00;;;;;;;23.59;69.80;99756.47;7396402;19;20014;-81
2023/08/28 11:25:00;;;;;;;0.63;0.55;;;;;;;20.71;100.00;99770.09;7398796;19;20081;-80
2023/08/28 11:27:42;;;;;;;0.88;0.10;;;;;;;19.75;100.00;99768.91;7396236;19;20024;-81
2023/08/28 11:30:10;;;;;;;1.35;0.30;;;;;;;19.21;100.00;99766.44;7396023;19;20022;-81
2023/08/28 11:32:38;;;;;;;0.28;0.22;;;;;;;19.01;100.00;99775.50;7396771;19;20374;-80